createdAt,value
2022-08-04T00:00:09.178Z,28.46
2022-08-04T00:03:12.053Z,28.43
2022-08-04T00:06:01.350Z,28.38
2022-08-04T00:08:41.217Z,28.35
2022-08-04T00:11:15.903Z,28.31
2022-08-04T00:13:59.737Z,28.28
2022-08-04T00:16:37.706Z,28.25
2022-08-04T00:19:13.558Z,28.20
2022-08-04T00:21:48.271Z,28.18
2022-08-04T00:24:16.565Z,28.15
2022-08-04T00:26:44.300Z,28.10
2022-08-04T00:29:11.514Z,28.08
2022-08-04T00:31:56.154Z,28.03
2022-08-04T00:34:27.946Z,28.01
2022-08-04T00:36:57.259Z,27.98
2022-08-04T00:39:25.418Z,27.95
2022-08-04T00:42:25.848Z,27.92
2022-08-04T00:45:30.720Z,27.90
2022-08-04T00:48:42.309Z,27.83
2022-08-04T00:51:26.569Z,27.83
2022-08-04T00:54:13.192Z,27.83
2022-08-04T00:57:33.595Z,27.82
2022-08-04T01:00:15.565Z,27.79
2022-08-04T01:03:06.294Z,27.77
2022-08-04T01:06:02.171Z,27.77
2022-08-04T01:09:21.686Z,27.76
2022-08-04T01:12:21.371Z,27.73
2022-08-04T01:15:08.074Z,27.73
2022-08-04T01:17:55.040Z,27.70
2022-08-04T01:20:25.917Z,27.66
2022-08-04T01:23:53.701Z,27.63
2022-08-04T01:26:53.669Z,27.58
2022-08-04T01:29:46.422Z,27.55
2022-08-04T01:32:37.677Z,27.52
2022-08-04T01:35:22.122Z,27.51
2022-08-04T01:38:26.019Z,27.46
2022-08-04T01:41:01.454Z,27.45
2022-08-04T01:43:30.897Z,27.44
2022-08-04T01:46:05.033Z,27.44
2022-08-04T01:48:34.799Z,27.43
2022-08-04T01:51:08.450Z,27.44
2022-08-04T01:53:44.117Z,27.46
2022-08-04T01:56:12.907Z,27.44
2022-08-04T01:58:41.327Z,27.43
2022-08-04T02:01:11.989Z,27.42
2022-08-04T02:04:18.742Z,27.43
2022-08-04T02:06:47.438Z,27.40
2022-08-04T02:09:36.127Z,27.37
2022-08-04T02:12:31.361Z,27.33
2022-08-04T02:15:15.137Z,27.32
2022-08-04T02:17:57.517Z,27.31
2022-08-04T02:20:33.926Z,27.32
2022-08-04T02:23:08.177Z,27.31
2022-08-04T02:25:41.509Z,27.29
2022-08-04T02:28:13.237Z,27.30
2022-08-04T02:30:54.075Z,27.31
2022-08-04T02:33:29.587Z,27.31
2022-08-04T02:36:02.495Z,27.32
2022-08-04T02:38:57.251Z,27.27
2022-08-04T02:41:27.605Z,27.25
2022-08-04T02:44:04.378Z,27.23
2022-08-04T02:46:53.341Z,27.22
2022-08-04T02:49:23.271Z,27.22
2022-08-04T02:51:55.810Z,27.20
2022-08-04T02:54:35.800Z,27.21
2022-08-04T02:57:04.318Z,27.19
2022-08-04T03:00:14.237Z,27.17
2022-08-04T03:03:33.232Z,27.13
2022-08-04T03:06:26.016Z,27.09
2022-08-04T03:09:23.514Z,27.02
2022-08-04T03:12:33.603Z,26.94
2022-08-04T03:15:43.648Z,26.90
2022-08-04T03:18:37.444Z,26.89
2022-08-04T03:21:47.760Z,26.86
2022-08-04T03:24:31.130Z,26.86
2022-08-04T03:27:22.933Z,26.83
2022-08-04T03:30:20.050Z,26.83
2022-08-04T03:33:15.740Z,26.77
2022-08-04T03:36:10.686Z,26.71
2022-08-04T03:38:57.286Z,26.66
2022-08-04T03:42:04.323Z,26.63
2022-08-04T03:44:44.124Z,26.61
2022-08-04T03:47:36.152Z,26.58
2022-08-04T03:50:42.325Z,26.55
2022-08-04T03:53:36.798Z,26.55
2022-08-04T03:56:40.799Z,26.54
2022-08-04T03:59:50.731Z,26.52
2022-08-04T04:02:39.375Z,26.51
2022-08-04T04:05:58.776Z,26.46
2022-08-04T04:08:34.614Z,26.43
2022-08-04T04:11:30.967Z,26.41
2022-08-04T04:14:40.056Z,26.36
2022-08-04T04:17:28.034Z,26.35
2022-08-04T04:20:37.204Z,26.34
2022-08-04T04:23:29.257Z,26.32
2022-08-04T04:26:45.972Z,26.28
2022-08-04T04:29:31.314Z,26.22
2022-08-04T04:32:44.448Z,26.18
2022-08-04T04:36:12.198Z,26.10
2022-08-04T04:38:52.427Z,26.06
2022-08-04T04:41:25.642Z,26.06
2022-08-04T04:44:21.817Z,26.05
2022-08-04T04:47:12.000Z,26.05
2022-08-04T04:50:10.180Z,26.05
2022-08-04T04:52:48.212Z,26.06
2022-08-04T04:55:22.451Z,26.06
2022-08-04T04:57:54.715Z,26.06
2022-08-04T05:00:31.006Z,26.07
2022-08-04T05:03:37.551Z,26.07
2022-08-04T05:06:19.637Z,26.09
2022-08-04T05:09:20.673Z,26.13
2022-08-04T05:13:20.448Z,26.15
2022-08-04T05:15:11.616Z,26.20
2022-08-04T05:17:50.215Z,26.23
2022-08-04T05:20:27.436Z,26.26
2022-08-04T05:23:03.336Z,26.30
2022-08-04T05:25:58.785Z,26.33
2022-08-04T05:28:38.912Z,26.37
2022-08-04T05:31:12.899Z,26.40
2022-08-04T05:33:47.640Z,26.43
2022-08-04T05:36:33.006Z,26.46
2022-08-04T05:39:34.311Z,26.50
2022-08-04T05:42:04.839Z,26.51
2022-08-04T05:44:35.210Z,26.53
2022-08-04T05:47:04.435Z,26.54
2022-08-04T05:49:33.896Z,26.58
2022-08-04T05:52:04.142Z,26.61
2022-08-04T05:54:33.649Z,26.62
2022-08-04T05:57:05.011Z,26.67
2022-08-04T05:59:35.138Z,26.67
2022-08-04T06:02:04.574Z,26.70
2022-08-04T06:04:36.170Z,26.73
2022-08-04T06:07:04.285Z,26.75
2022-08-04T06:09:31.727Z,26.77
2022-08-04T06:12:07.953Z,26.80
2022-08-04T06:14:46.373Z,26.85
2022-08-04T06:19:57.630Z,26.90
2022-08-04T06:20:35.013Z,26.94
2022-08-04T06:23:16.184Z,26.97
2022-08-04T06:25:55.526Z,27.01
2022-08-04T06:28:52.041Z,27.04
2022-08-04T06:32:30.769Z,27.07
2022-08-04T06:34:48.041Z,27.12
2022-08-04T06:37:23.147Z,27.16
2022-08-04T06:40:31.434Z,27.20
2022-08-04T06:42:54.199Z,27.25
2022-08-04T06:45:22.444Z,27.29
2022-08-04T06:47:50.481Z,27.33
2022-08-04T06:51:32.186Z,27.39
2022-08-04T06:53:07.105Z,27.44
2022-08-04T06:55:34.980Z,27.47
2022-08-04T06:58:03.742Z,27.52
2022-08-04T07:00:33.043Z,27.56
2022-08-04T07:03:00.577Z,27.62
2022-08-04T07:05:28.743Z,27.67
2022-08-04T07:07:58.595Z,27.73
2022-08-04T07:10:28.415Z,27.80
2022-08-04T07:12:58.318Z,27.85
2022-08-04T07:15:26.892Z,27.93
2022-08-04T07:18:00.528Z,27.97
2022-08-04T07:20:33.993Z,28.04
2022-08-04T07:23:03.571Z,28.12
2022-08-04T07:26:01.029Z,28.17
2022-08-04T07:28:19.648Z,28.27
2022-08-04T07:30:49.519Z,28.31
2022-08-04T07:33:26.012Z,28.36
2022-08-04T07:36:09.650Z,28.38
2022-08-04T07:38:48.756Z,28.40
2022-08-04T07:41:40.707Z,28.50
2022-08-04T07:44:09.821Z,28.58
2022-08-04T07:46:37.545Z,28.62
2022-08-04T07:49:06.470Z,28.65
2022-08-04T07:51:37.048Z,28.68
2022-08-04T07:54:07.666Z,28.72
2022-08-04T07:56:37.771Z,28.83
2022-08-04T07:59:06.271Z,28.86
2022-08-04T08:01:36.198Z,28.93
2022-08-04T08:04:06.596Z,28.96
2022-08-04T08:06:42.616Z,29.06
2022-08-04T08:09:16.580Z,29.09
2022-08-04T08:12:36.517Z,29.14
2022-08-04T08:14:35.833Z,29.18
2022-08-04T08:17:04.602Z,29.28
2022-08-04T08:19:32.669Z,29.32
2022-08-04T08:22:01.431Z,29.39
2022-08-04T08:24:31.911Z,29.41
2022-08-04T08:27:00.511Z,29.47
2022-08-04T08:29:29.583Z,29.53
2022-08-04T08:32:01.406Z,29.65
2022-08-04T08:34:31.725Z,29.70
2022-08-04T08:37:05.686Z,29.75
2022-08-04T08:39:43.405Z,29.80
2022-08-04T08:42:31.528Z,29.85
2022-08-04T08:45:07.719Z,29.91
2022-08-04T08:48:06.240Z,29.94
2022-08-04T08:51:01.683Z,30.03
2022-08-04T08:54:09.815Z,30.18
2022-08-04T08:57:08.798Z,30.16
2022-08-04T09:00:16.788Z,30.20
2022-08-04T09:03:22.437Z,30.29
2022-08-04T09:06:14.024Z,30.40
2022-08-04T09:09:17.405Z,30.50
2022-08-04T09:12:14.655Z,30.55
2022-08-04T09:15:08.170Z,30.63
2022-08-04T09:17:49.149Z,30.71
2022-08-04T09:20:41.135Z,30.80
2022-08-04T09:23:18.393Z,30.93
2022-08-04T09:26:14.767Z,30.95
2022-08-04T09:29:04.898Z,31.01
2022-08-04T09:32:06.343Z,31.13
2022-08-04T09:34:37.662Z,31.20
2022-08-04T09:37:22.848Z,31.23
2022-08-04T09:40:07.093Z,31.31
2022-08-04T09:43:06.038Z,31.36
2022-08-04T09:46:10.975Z,31.42
2022-08-04T09:49:10.265Z,31.48
2022-08-04T09:51:57.166Z,31.56
2022-08-04T09:54:40.998Z,31.69
2022-08-04T09:57:15.196Z,31.76
2022-08-04T10:00:08.620Z,31.88
2022-08-04T10:02:53.882Z,31.93
2022-08-04T10:05:26.242Z,31.99
2022-08-04T10:08:25.988Z,32.08
2022-08-04T10:11:55.645Z,32.16
2022-08-04T10:14:50.199Z,32.27
2022-08-04T10:17:43.507Z,32.35
2022-08-04T10:20:56.870Z,32.44
2022-08-04T10:23:56.026Z,32.51
2022-08-04T10:26:46.381Z,32.60
2022-08-04T10:29:41.543Z,32.65
2022-08-04T10:32:25.830Z,32.72
2022-08-04T10:35:14.811Z,32.78
2022-08-04T10:38:03.201Z,32.92
2022-08-04T10:40:46.667Z,32.93
2022-08-04T10:43:39.940Z,33.02
2022-08-04T10:46:29.022Z,33.09
2022-08-04T10:49:10.565Z,33.19
2022-08-04T10:51:58.322Z,33.26
2022-08-04T10:55:07.449Z,33.35
2022-08-04T10:57:41.976Z,33.40
2022-08-04T11:00:16.448Z,33.43
2022-08-04T11:02:54.320Z,33.52
2022-08-04T11:05:44.248Z,33.60
2022-08-04T11:08:35.582Z,33.70
2022-08-04T11:11:17.578Z,33.77
2022-08-04T11:13:58.019Z,33.85
2022-08-04T11:16:31.883Z,33.90
2022-08-04T11:19:42.782Z,33.95
2022-08-04T11:22:23.474Z,34.04
2022-08-04T11:25:21.021Z,34.06
2022-08-04T11:28:37.357Z,34.11
2022-08-04T11:31:08.475Z,34.18
2022-08-04T11:33:46.508Z,34.29
2022-08-04T11:36:40.076Z,34.42
2022-08-04T11:39:14.397Z,34.36
2022-08-04T11:41:48.825Z,34.40
2022-08-04T11:44:29.438Z,34.48
2022-08-04T11:47:03.094Z,34.59
2022-08-04T11:49:57.194Z,34.68
2022-08-04T11:52:27.795Z,34.73
2022-08-04T11:54:57.202Z,34.83
2022-08-04T11:57:35.740Z,34.95
2022-08-04T12:00:10.856Z,35.04
2022-08-04T12:03:18.380Z,35.16
2022-08-04T12:06:22.764Z,35.27
2022-08-04T12:09:10.154Z,35.39
2022-08-04T12:12:52.698Z,35.52
2022-08-04T12:15:53.219Z,35.61
2022-08-04T12:18:27.706Z,35.67
2022-08-04T12:21:03.981Z,35.71
2022-08-04T12:23:42.187Z,35.79
2022-08-04T12:26:23.637Z,35.78
2022-08-04T12:29:14.070Z,35.87
2022-08-04T12:31:58.352Z,35.92
2022-08-04T12:34:55.131Z,35.99
2022-08-04T12:37:45.921Z,36.06
2022-08-04T12:40:54.283Z,36.21
2022-08-04T12:43:49.709Z,36.31
2022-08-04T12:46:28.017Z,36.34
2022-08-04T12:49:02.503Z,36.43
2022-08-04T12:52:08.699Z,36.55
2022-08-04T12:54:29.208Z,36.51
2022-08-04T12:57:02.212Z,36.57
2022-08-04T12:59:29.795Z,36.61
2022-08-04T13:02:07.097Z,36.67
2022-08-04T13:04:51.191Z,36.72
2022-08-04T13:07:25.579Z,36.74
2022-08-04T13:09:53.567Z,36.84
2022-08-04T13:12:32.873Z,36.92
2022-08-04T13:18:14.851Z,37.01
2022-08-04T13:20:45.404Z,37.06
2022-08-04T13:23:21.587Z,37.08
2022-08-04T13:26:42.491Z,37.04
2022-08-04T13:28:44.315Z,37.07
2022-08-04T13:30:23.875Z,37.04
2022-08-04T13:31:23.305Z,37.17
2022-08-04T13:33:54.425Z,37.15
2022-08-04T13:36:26.351Z,37.17
2022-08-04T13:39:14.628Z,37.16
2022-08-04T13:41:58.816Z,37.26
2022-08-04T13:44:32.982Z,37.35
2022-08-04T13:47:08.470Z,37.40
2022-08-04T13:49:54.547Z,37.52
2022-08-04T13:52:26.836Z,37.59
2022-08-04T13:54:54.142Z,37.60
2022-08-04T13:57:32.437Z,37.73
2022-08-04T14:00:07.585Z,37.65
2022-08-04T14:02:44.522Z,37.71
2022-08-04T14:05:27.028Z,37.83
2022-08-04T14:08:18.659Z,37.86
2022-08-04T14:10:55.895Z,37.81
2022-08-04T14:13:41.958Z,37.91
2022-08-04T14:16:21.158Z,38.01
2022-08-04T14:18:58.341Z,38.08
2022-08-04T14:21:38.563Z,38.03
2022-08-04T14:24:06.702Z,38.08
2022-08-04T14:26:35.944Z,38.09
2022-08-04T14:29:26.697Z,38.10
2022-08-04T14:32:13.879Z,38.11
2022-08-04T14:34:45.007Z,38.10
2022-08-04T14:37:20.520Z,38.14
2022-08-04T14:40:17.853Z,38.22
2022-08-04T14:42:54.317Z,38.24
2022-08-04T14:45:54.080Z,38.23
2022-08-04T14:48:23.109Z,38.13
2022-08-04T14:50:51.140Z,38.11
2022-08-04T14:53:29.605Z,38.08
2022-08-04T14:56:05.828Z,38.10
2022-08-04T14:58:39.347Z,38.15
2022-08-04T15:01:12.083Z,38.18
2022-08-04T15:03:48.279Z,38.16
2022-08-04T15:06:37.157Z,38.14
2022-08-04T15:09:20.838Z,38.09
2022-08-04T15:11:48.251Z,38.07
2022-08-04T15:14:36.449Z,38.03
2022-08-04T15:17:06.212Z,37.95
2022-08-04T15:19:37.171Z,37.86
2022-08-04T15:22:05.072Z,37.78
2022-08-04T15:24:32.588Z,37.72
2022-08-04T15:27:04.268Z,37.62
2022-08-04T15:29:59.508Z,37.56
2022-08-04T15:32:36.272Z,37.51
2022-08-04T15:35:17.163Z,37.49
2022-08-04T15:38:02.479Z,37.46
2022-08-04T15:40:42.972Z,37.31
2022-08-04T15:43:31.255Z,37.22
2022-08-04T15:46:41.826Z,37.14
2022-08-04T15:48:52.494Z,37.12
2022-08-04T15:51:31.946Z,37.11
2022-08-04T15:54:16.330Z,37.08
2022-08-04T15:56:48.310Z,37.05
2022-08-04T16:00:00.628Z,37.02
2022-08-04T16:02:34.198Z,37.00
2022-08-04T16:05:17.272Z,36.97
2022-08-04T16:08:08.707Z,36.93
2022-08-04T16:10:38.307Z,36.94
2022-08-04T16:13:27.214Z,36.86
2022-08-04T16:15:58.333Z,36.84
2022-08-04T16:18:39.458Z,36.82
2022-08-04T16:21:19.473Z,36.79
2022-08-04T16:24:00.659Z,36.76
2022-08-04T16:26:45.273Z,36.77
2022-08-04T16:29:42.137Z,36.71
2022-08-04T16:32:15.766Z,36.71
2022-08-04T16:34:55.488Z,36.68
2022-08-04T16:37:38.769Z,36.66
2022-08-04T16:40:38.526Z,36.65
2022-08-04T16:43:18.293Z,36.59
2022-08-04T16:45:55.541Z,36.56
2022-08-04T16:48:29.417Z,36.54
2022-08-04T16:51:04.938Z,36.52
2022-08-04T16:53:53.802Z,36.48
2022-08-04T16:56:34.561Z,36.44
2022-08-04T16:59:13.539Z,36.41
2022-08-04T17:01:51.316Z,36.39
2022-08-04T17:04:28.366Z,36.37
2022-08-04T17:07:05.135Z,36.34
2022-08-04T17:09:32.931Z,36.34
2022-08-04T17:12:02.186Z,36.33
2022-08-04T17:14:31.356Z,36.28
2022-08-04T17:17:00.993Z,36.24
2022-08-04T17:19:28.446Z,36.21
2022-08-04T17:22:04.868Z,36.17
2022-08-04T17:24:35.799Z,36.14
2022-08-04T17:27:04.222Z,36.09
2022-08-04T17:29:44.267Z,36.07
2022-08-04T17:32:18.898Z,36.01
2022-08-04T17:34:57.347Z,35.97
2022-08-04T17:37:53.075Z,35.94
2022-08-04T17:40:18.006Z,35.88
2022-08-04T17:42:48.897Z,35.82
2022-08-04T17:48:24.173Z,35.74
2022-08-04T17:50:52.876Z,35.70
2022-08-04T17:54:02.147Z,35.64
2022-08-04T17:56:43.117Z,35.57
2022-08-04T17:59:55.642Z,35.53
2022-08-04T18:02:11.352Z,35.50
2022-08-04T18:05:07.810Z,35.46
2022-08-04T18:08:45.383Z,35.40
2022-08-04T18:10:52.424Z,35.35
2022-08-04T18:13:25.977Z,35.29
2022-08-04T18:16:12.552Z,35.25
2022-08-04T18:19:13.681Z,35.20
2022-08-04T18:21:46.429Z,35.14
2022-08-04T18:24:35.404Z,35.08
2022-08-04T18:27:19.327Z,35.03
2022-08-04T18:30:15.062Z,34.98
2022-08-04T18:32:34.363Z,34.92
2022-08-04T18:35:05.019Z,34.84
2022-08-04T18:38:05.984Z,34.79
2022-08-04T18:40:28.130Z,34.73
2022-08-04T18:43:00.562Z,34.68
2022-08-04T18:45:34.666Z,34.63
2022-08-04T18:48:14.164Z,34.57
2022-08-04T18:51:10.988Z,34.51
2022-08-04T18:53:35.039Z,34.45
2022-08-04T18:56:06.368Z,34.38
2022-08-04T18:58:46.867Z,34.32
2022-08-04T19:01:15.612Z,34.28
2022-08-04T19:03:44.689Z,34.26
2022-08-04T19:06:14.357Z,34.20
2022-08-04T19:08:45.023Z,34.13
2022-08-04T19:11:37.371Z,34.09
2022-08-04T19:14:02.898Z,34.04
2022-08-04T19:16:32.753Z,33.99
2022-08-04T19:19:05.594Z,33.93
2022-08-04T19:21:59.222Z,33.87
2022-08-04T19:24:34.105Z,33.81
2022-08-04T19:27:06.972Z,33.77
2022-08-04T19:29:52.785Z,33.69
2022-08-04T19:32:21.731Z,33.66
2022-08-04T19:34:52.082Z,33.63
2022-08-04T19:37:57.073Z,33.59
2022-08-04T19:40:10.230Z,33.55
2022-08-04T19:42:38.179Z,33.51
2022-08-04T19:45:06.964Z,33.47
2022-08-04T19:48:16.630Z,33.43
2022-08-04T19:50:23.710Z,33.36
2022-08-04T19:52:52.764Z,33.32
2022-08-04T19:55:36.820Z,33.30
2022-08-04T19:58:08.479Z,33.24
2022-08-04T20:00:38.241Z,33.18
2022-08-04T20:03:10.032Z,33.13
2022-08-04T20:05:53.234Z,33.07
2022-08-04T20:08:31.588Z,33.00
2022-08-04T20:11:00.160Z,32.98
2022-08-04T20:13:31.003Z,32.93
2022-08-04T20:16:28.329Z,32.89
2022-08-04T20:18:56.857Z,32.85
2022-08-04T20:21:36.690Z,32.80
2022-08-04T20:24:39.202Z,32.76
2022-08-04T20:27:07.717Z,32.72
2022-08-04T20:29:40.795Z,32.67
2022-08-04T20:32:10.519Z,32.65
2022-08-04T20:34:40.127Z,32.64
2022-08-04T20:37:10.349Z,32.62
2022-08-04T20:39:37.912Z,32.58
2022-08-04T20:42:05.707Z,32.56
2022-08-04T20:44:33.965Z,32.51
2022-08-04T20:49:48.034Z,32.37
2022-08-04T20:52:20.335Z,32.33
2022-08-04T20:57:48.218Z,32.21
2022-08-04T21:00:26.557Z,32.17
2022-08-04T21:02:59.107Z,32.14
2022-08-04T21:05:26.405Z,32.10
2022-08-04T21:07:57.073Z,32.07
2022-08-04T21:13:12.316Z,32.01
2022-08-04T21:15:58.648Z,31.97
2022-08-04T21:18:29.418Z,31.93
2022-08-04T21:20:56.553Z,31.87
2022-08-04T21:23:23.506Z,31.84
2022-08-04T21:26:01.833Z,31.78
2022-08-04T21:28:30.003Z,31.76
2022-08-04T21:30:59.557Z,31.72
2022-08-04T21:33:50.481Z,31.68
2022-08-04T21:36:19.833Z,31.66
2022-08-04T21:38:51.747Z,31.63
2022-08-04T21:41:24.819Z,31.62
2022-08-04T21:43:55.027Z,31.58
2022-08-04T21:46:22.820Z,31.54
2022-08-04T21:48:50.560Z,31.50
2022-08-04T21:51:57.511Z,31.48
2022-08-04T21:54:09.733Z,31.47
2022-08-04T21:56:42.207Z,31.47
2022-08-04T21:59:23.790Z,31.49
2022-08-04T22:02:00.849Z,31.50
2022-08-04T22:04:29.588Z,31.47
2022-08-04T22:06:56.627Z,31.46
2022-08-04T22:09:23.618Z,31.38
2022-08-04T22:11:51.951Z,31.31
2022-08-04T22:14:29.717Z,31.25
2022-08-04T22:17:04.142Z,31.18
2022-08-04T22:19:40.723Z,31.14
2022-08-04T22:22:25.181Z,31.09
2022-08-04T22:24:58.703Z,31.03
2022-08-04T22:28:02.869Z,30.99
2022-08-04T22:30:37.539Z,30.92
2022-08-04T22:33:08.961Z,30.92
2022-08-04T22:35:49.082Z,30.85
2022-08-04T22:38:31.748Z,30.80
2022-08-04T22:41:11.637Z,30.77
2022-08-04T22:43:40.510Z,30.74
2022-08-04T22:46:21.157Z,30.71
2022-08-04T22:48:49.236Z,30.68
2022-08-04T22:51:16.853Z,30.67
2022-08-04T22:53:48.929Z,30.64
2022-08-04T22:56:37.266Z,30.58
2022-08-04T22:59:05.946Z,30.54
2022-08-04T23:01:57.942Z,30.51
2022-08-04T23:04:23.130Z,30.47
2022-08-04T23:06:50.637Z,30.45
2022-08-04T23:09:17.657Z,30.41
2022-08-04T23:11:45.878Z,30.41
2022-08-04T23:14:17.826Z,30.38
2022-08-04T23:16:44.871Z,30.38
2022-08-04T23:19:15.410Z,30.33
2022-08-04T23:21:47.884Z,30.31
2022-08-04T23:24:29.748Z,30.27
2022-08-04T23:26:58.809Z,30.25
2022-08-04T23:29:25.908Z,30.22
2022-08-04T23:31:59.444Z,30.22
2022-08-04T23:34:32.260Z,30.21
2022-08-04T23:36:59.446Z,30.17
2022-08-04T23:40:03.382Z,30.16
2022-08-04T23:42:15.090Z,30.12
2022-08-04T23:44:48.851Z,30.09
2022-08-04T23:48:16.191Z,30.07
2022-08-04T23:50:03.453Z,30.01
2022-08-04T23:52:31.016Z,29.97
2022-08-04T23:55:01.043Z,29.96
2022-08-04T23:58:06.559Z,29.91
